sensor_id;sensor_type;location;lat;lon;timestamp;temperature;humidity
27870;DHT22;15225;50.730;4.244;2023-11-18T16:47:42;10.50;99.90
27870;DHT22;15225;50.730;4.244;2023-11-18T16:50:11;10.70;99.90
27870;DHT22;15225;50.730;4.244;2023-11-18T16:52:38;11.10;99.90
27870;DHT22;15225;50.730;4.244;2023-11-18T16:55:10;11.40;99.90
27870;DHT22;15225;50.730;4.244;2023-11-18T16:57:36;11.80;99.90
27870;DHT22;15225;50.730;4.244;2023-11-18T17:00:07;11.90;99.90
27870;DHT22;15225;50.730;4.244;2023-11-18T17:02:46;12.00;98.40
27870;DHT22;15225;50.730;4.244;2023-11-18T17:05:21;12.10;94.10
27870;DHT22;15225;50.730;4.244;2023-11-18T17:07:47;12.30;83.40
27870;DHT22;15225;50.730;4.244;2023-11-18T17:10:14;12.50;77.20
27870;DHT22;15225;50.730;4.244;2023-11-18T17:12:44;12.60;65.20
27870;DHT22;15225;50.730;4.244;2023-11-18T17:15:16;12.60;58.50
27870;DHT22;15225;50.730;4.244;2023-11-18T17:17:46;12.60;56.90
27870;DHT22;15225;50.730;4.244;2023-11-18T17:20:13;12.80;53.90
27870;DHT22;15225;50.730;4.244;2023-11-18T17:22:40;12.80;44.30
27870;DHT22;15225;50.730;4.244;2023-11-18T17:25:10;12.80;45.40
27870;DHT22;15225;50.730;4.244;2023-11-18T17:27:39;12.90;48.50
27870;DHT22;15225;50.730;4.244;2023-11-18T17:30:06;12.90;45.10
27870;DHT22;15225;50.730;4.244;2023-11-18T17:32:40;13.00;45.70
27870;DHT22;15225;50.730;4.244;2023-11-18T17:35:07;13.20;36.40
27870;DHT22;15225;50.730;4.244;2023-11-18T17:37:38;13.20;33.80
27870;DHT22;15225;50.730;4.244;2023-11-18T17:40:04;13.10;38.90
27870;DHT22;15225;50.730;4.244;2023-11-18T17:42:31;13.20;35.70
27870;DHT22;15225;50.730;4.244;2023-11-18T17:44:56;13.30;35.40
27870;DHT22;15225;50.730;4.244;2023-11-18T17:47:23;13.30;31.90
27870;DHT22;15225;50.730;4.244;2023-11-18T17:49:52;13.30;32.10
27870;DHT22;15225;50.730;4.244;2023-11-18T17:52:18;13.30;32.90
27870;DHT22;15225;50.730;4.244;2023-11-18T17:54:43;13.30;34.10
27870;DHT22;15225;50.730;4.244;2023-11-18T17:57:09;13.20;36.90
27870;DHT22;15225;50.730;4.244;2023-11-18T17:59:36;13.30;36.70
27870;DHT22;15225;50.730;4.244;2023-11-18T18:02:02;13.40;34.30
27870;DHT22;15225;50.730;4.244;2023-11-18T18:04:28;13.40;31.40
27870;DHT22;15225;50.730;4.244;2023-11-18T18:06:53;13.40;35.90
27870;DHT22;15225;50.730;4.244;2023-11-18T18:09:19;13.50;33.70
27870;DHT22;15225;50.730;4.244;2023-11-18T18:11:46;13.50;39.70
27870;DHT22;15225;50.730;4.244;2023-11-18T18:14:11;13.50;43.20
27870;DHT22;15225;50.730;4.244;2023-11-18T18:16:37;13.60;40.60
27870;DHT22;15225;50.730;4.244;2023-11-18T18:19:05;13.60;37.50
27870;DHT22;15225;50.730;4.244;2023-11-18T18:21:31;13.70;39.50
27870;DHT22;15225;50.730;4.244;2023-11-18T18:23:57;13.80;34.50
27870;DHT22;15225;50.730;4.244;2023-11-18T18:26:23;14.00;27.80
27870;DHT22;15225;50.730;4.244;2023-11-18T18:28:48;14.00;26.30
27870;DHT22;15225;50.730;4.244;2023-11-18T18:31:14;14.10;23.10
27870;DHT22;15225;50.730;4.244;2023-11-18T18:33:40;14.20;21.50
27870;DHT22;15225;50.730;4.244;2023-11-18T18:36:09;14.10;23.40
27870;DHT22;15225;50.730;4.244;2023-11-18T18:38:34;14.00;31.30
27870;DHT22;15225;50.730;4.244;2023-11-18T18:41:00;14.00;37.70
27870;DHT22;15225;50.730;4.244;2023-11-18T18:43:26;14.20;28.90
27870;DHT22;15225;50.730;4.244;2023-11-18T18:45:51;14.30;22.60
27870;DHT22;15225;50.730;4.244;2023-11-18T18:48:17;14.40;18.40
27870;DHT22;15225;50.730;4.244;2023-11-18T18:50:43;14.40;17.90
27870;DHT22;15225;50.730;4.244;2023-11-18T18:53:09;14.40;20.20
27870;DHT22;15225;50.730;4.244;2023-11-18T18:55:34;14.40;17.70
27870;DHT22;15225;50.730;4.244;2023-11-18T18:58:02;14.40;17.60
27870;DHT22;15225;50.730;4.244;2023-11-18T19:00:28;14.30;19.10
27870;DHT22;15225;50.730;4.244;2023-11-18T19:02:54;14.30;23.70
27870;DHT22;15225;50.730;4.244;2023-11-18T19:05:20;14.30;28.00
27870;DHT22;15225;50.730;4.244;2023-11-18T19:07:51;14.30;27.50
27870;DHT22;15225;50.730;4.244;2023-11-18T19:10:21;14.30;24.50
27870;DHT22;15225;50.730;4.244;2023-11-18T19:12:47;14.20;25.90
27870;DHT22;15225;50.730;4.244;2023-11-18T19:15:13;14.20;27.80
27870;DHT22;15225;50.730;4.244;2023-11-18T19:17:43;14.10;32.40
27870;DHT22;15225;50.730;4.244;2023-11-18T19:20:11;14.10;35.30
27870;DHT22;15225;50.730;4.244;2023-11-18T19:22:40;14.20;39.40
27870;DHT22;15225;50.730;4.244;2023-11-18T19:25:06;14.40;23.10
27870;DHT22;15225;50.730;4.244;2023-11-18T19:27:34;14.60;17.50
27870;DHT22;15225;50.730;4.244;2023-11-18T19:30:00;14.60;12.10
27870;DHT22;15225;50.730;4.244;2023-11-18T19:32:30;14.50;17.70
27870;DHT22;15225;50.730;4.244;2023-11-18T19:34:56;14.50;24.80
27870;DHT22;15225;50.730;4.244;2023-11-18T19:37:21;14.50;19.70
27870;DHT22;15225;50.730;4.244;2023-11-18T19:39:47;14.60;14.20
27870;DHT22;15225;50.730;4.244;2023-11-18T19:42:14;14.60;17.10
27870;DHT22;15225;50.730;4.244;2023-11-18T19:44:39;14.60;16.30
27870;DHT22;15225;50.730;4.244;2023-11-18T19:47:06;14.50;19.00
27870;DHT22;15225;50.730;4.244;2023-11-18T19:49:32;14.50;20.60
27870;DHT22;15225;50.730;4.244;2023-11-18T19:51:59;14.40;26.90
27870;DHT22;15225;50.730;4.244;2023-11-18T19:54:25;14.40;32.90
27870;DHT22;15225;50.730;4.244;2023-11-18T19:56:51;14.40;29.90
27870;DHT22;15225;50.730;4.244;2023-11-18T19:59:16;14.60;23.60
27870;DHT22;15225;50.730;4.244;2023-11-18T20:01:42;14.60;20.90
27870;DHT22;15225;50.730;4.244;2023-11-18T20:04:09;14.60;22.10
27870;DHT22;15225;50.730;4.244;2023-11-18T20:06:35;14.80;17.60
27870;DHT22;15225;50.730;4.244;2023-11-18T20:09:01;14.70;18.50
27870;DHT22;15225;50.730;4.244;2023-11-18T20:11:26;14.60;20.80
27870;DHT22;15225;50.730;4.244;2023-11-18T20:13:52;14.70;16.70
27870;DHT22;15225;50.730;4.244;2023-11-18T20:16:17;14.70;18.70
27870;DHT22;15225;50.730;4.244;2023-11-18T20:18:46;14.70;20.60
27870;DHT22;15225;50.730;4.244;2023-11-18T20:21:11;14.70;18.50
27870;DHT22;15225;50.730;4.244;2023-11-18T20:23:37;14.60;21.60
27870;DHT22;15225;50.730;4.244;2023-11-18T20:26:03;14.70;21.30
27870;DHT22;15225;50.730;4.244;2023-11-18T20:28:30;14.80;17.10
27870;DHT22;15225;50.730;4.244;2023-11-18T20:30:55;14.80;18.40
27870;DHT22;15225;50.730;4.244;2023-11-18T20:33:21;14.80;17.70
27870;DHT22;15225;50.730;4.244;2023-11-18T20:35:47;14.80;14.80
27870;DHT22;15225;50.730;4.244;2023-11-18T20:38:13;14.80;15.60
27870;DHT22;15225;50.730;4.244;2023-11-18T20:40:38;14.80;17.60
27870;DHT22;15225;50.730;4.244;2023-11-18T20:43:04;14.80;15.60
27870;DHT22;15225;50.730;4.244;2023-11-18T20:45:31;14.80;18.70
27870;DHT22;15225;50.730;4.244;2023-11-18T20:47:57;14.90;15.50
27870;DHT22;15225;50.730;4.244;2023-11-18T20:50:23;14.90;15.00
27870;DHT22;15225;50.730;4.244;2023-11-18T20:52:50;14.90;13.30
27870;DHT22;15225;50.730;4.244;2023-11-18T20:55:16;15.00;11.00
27870;DHT22;15225;50.730;4.244;2023-11-18T20:57:43;15.00;8.70
27870;DHT22;15225;50.730;4.244;2023-11-18T21:00:10;14.90;13.00
27870;DHT22;15225;50.730;4.244;2023-11-18T21:02:37;15.00;14.20
27870;DHT22;15225;50.730;4.244;2023-11-18T21:05:04;15.00;11.40
27870;DHT22;15225;50.730;4.244;2023-11-18T21:07:38;15.00;15.80
27870;DHT22;15225;50.730;4.244;2023-11-18T21:10:04;15.00;14.60
27870;DHT22;15225;50.730;4.244;2023-11-18T21:12:31;15.10;12.90
27870;DHT22;15225;50.730;4.244;2023-11-18T21:14:57;15.10;9.60
27870;DHT22;15225;50.730;4.244;2023-11-18T21:17:25;15.10;8.50
27870;DHT22;15225;50.730;4.244;2023-11-18T21:19:54;15.10;11.90
27870;DHT22;15225;50.730;4.244;2023-11-18T21:22:21;15.20;11.50
27870;DHT22;15225;50.730;4.244;2023-11-18T21:24:47;15.40;6.30
27870;DHT22;15225;50.730;4.244;2023-11-18T21:27:12;15.30;1.40
27870;DHT22;15225;50.730;4.244;2023-11-18T21:29:38;15.50;1.00
27870;DHT22;15225;50.730;4.244;2023-11-18T21:32:04;15.40;2.80
27870;DHT22;15225;50.730;4.244;2023-11-18T21:34:30;15.30;5.50
27870;DHT22;15225;50.730;4.244;2023-11-18T21:36:56;15.30;7.90
27870;DHT22;15225;50.730;4.244;2023-11-18T21:39:21;15.30;12.00
27870;DHT22;15225;50.730;4.244;2023-11-18T21:41:48;15.30;9.80
27870;DHT22;15225;50.730;4.244;2023-11-18T21:44:13;15.30;10.80
27870;DHT22;15225;50.730;4.244;2023-11-18T21:46:39;15.30;15.30
27870;DHT22;15225;50.730;4.244;2023-11-18T21:49:05;15.40;6.70
27870;DHT22;15225;50.730;4.244;2023-11-18T21:51:35;15.40;9.50
27870;DHT22;15225;50.730;4.244;2023-11-18T21:54:01;15.50;5.90
27870;DHT22;15225;50.730;4.244;2023-11-18T21:56:35;15.60;1.00
27870;DHT22;15225;50.730;4.244;2023-11-18T21:59:01;15.50;1.50
27870;DHT22;15225;50.730;4.244;2023-11-18T22:01:29;15.30;11.50
27870;DHT22;15225;50.730;4.244;2023-11-18T22:03:55;15.50;9.30
